WXM80 ListenWXM80 Stop

You find our weather info also at:

UK Metoffice

WeatherCloud

Weather Underground

Northeastern Weather Network

AWEKAS

Citizen Weather Observer Program (CWOP)

HAMweather, WeatherForYou, PWS Weather


Weather Underground History page Text

Daily Summary for October 5, 2016 Units:  English    Metric   Both
« Previous Day
Next Day »
Daily Weekly Monthly Yearly Custom
  High: Low: Average:
Temperature: 68.7 °F 53.9 °F 59.8 °F
Dew Point: 57.2 °F 46.5 °F 52.3 °F
Humidity: 92 % 63 % 77 %
Wind Speed: 8.1 mph 0.0 mph 3 mph
Wind Gust: 16.1 mph - -
Wind:- - ENE
Pressure: 30.34 in 30.24 in -
Precipitation: 0.00 in    
Historical Graphs
 
 
Tabular Data for October 5, 2016
Time Temperature Dew Point Pressure Wind Wind Speed Wind Gust Humidity Rainfall Rate (Hourly)
00:03 60.1 °F 49.5 °F 30.29 in ENE 6.6 mph 11.5 mph 68 % 0.00 in
00:08 60.0 °F 49.0 °F 30.29 in East 7.2 mph 16.1 mph 67 % 0.00 in
00:13 59.8 °F 48.4 °F 30.29 in NE 7.7 mph 11.0 mph 66 % 0.00 in
00:18 59.8 °F 48.4 °F 30.30 in NE 6.6 mph 11.5 mph 66 % 0.00 in
00:29 59.6 °F 48.2 °F 30.30 in ENE 3.7 mph 8.1 mph 66 % 0.00 in
00:34 59.5 °F 47.7 °F 30.29 in ENE 6.7 mph 11.5 mph 65 % 0.00 in
00:39 59.3 °F 47.1 °F 30.29 in ENE 5.4 mph 8.1 mph 64 % 0.00 in
00:44 59.3 °F 47.5 °F 30.29 in East 5.6 mph 10.4 mph 65 % 0.00 in
00:49 59.3 °F 48.7 °F 30.29 in ENE 3.9 mph 8.1 mph 68 % 0.00 in
00:54 59.3 °F 48.3 °F 30.29 in ENE 4.8 mph 9.0 mph 67 % 0.00 in
01:09 59.2 °F 48.2 °F 30.29 in ENE 5.0 mph 9.2 mph 67 % 0.00 in
01:14 59.2 °F 47.8 °F 30.29 in ENE 7.6 mph 11.5 mph 66 % 0.00 in
01:20 59.2 °F 47.8 °F 30.29 in ENE 6.0 mph 9.2 mph 66 % 0.00 in
01:25 59.1 °F 47.7 °F 30.29 in East 4.6 mph 9.2 mph 66 % 0.00 in
01:30 59.1 °F 47.3 °F 30.30 in ENE 6.1 mph 11.5 mph 65 % 0.00 in
01:35 59.1 °F 47.7 °F 30.30 in East 4.5 mph 8.1 mph 66 % 0.00 in
01:40 59.1 °F 48.9 °F 30.30 in ENE 3.0 mph 5.0 mph 69 % 0.00 in
01:45 59.0 °F 49.6 °F 30.30 in NE 3.9 mph 8.1 mph 71 % 0.00 in
01:50 58.9 °F 49.1 °F 30.30 in NE 6.5 mph 11.5 mph 70 % 0.00 in
01:55 58.9 °F 49.5 °F 30.30 in ENE 4.4 mph 7.0 mph 71 % 0.00 in
02:00 58.8 °F 50.2 °F 30.30 in ENE 5.8 mph 8.1 mph 73 % 0.00 in
02:05 58.7 °F 50.1 °F 30.30 in ENE 6.4 mph 9.2 mph 73 % 0.00 in
02:11 58.6 °F 50.0 °F 30.31 in ENE 5.0 mph 10.0 mph 73 % 0.00 in
02:16 58.5 °F 50.2 °F 30.31 in NE 5.5 mph 8.1 mph 74 % 0.00 in
02:21 58.4 °F 50.5 °F 30.30 in ENE 6.0 mph 8.0 mph 75 % 0.00 in
02:26 58.4 °F 50.5 °F 30.30 in NE 3.0 mph 9.0 mph 75 % 0.00 in
02:31 58.3 °F 50.4 °F 30.31 in ENE 6.0 mph 13.0 mph 75 % 0.00 in
02:36 58.2 °F 49.9 °F 30.30 in ENE 6.0 mph 9.0 mph 74 % 0.00 in
02:41 58.1 °F 49.1 °F 30.30 in ENE 6.0 mph 10.0 mph 72 % 0.00 in
02:46 58.0 °F 49.0 °F 30.29 in ENE 6.0 mph 12.0 mph 72 % 0.00 in
02:56 57.9 °F 47.4 °F 30.30 in ENE 6.0 mph 12.0 mph 68 % 0.00 in
03:01 57.9 °F 48.2 °F 30.30 in ENE 5.9 mph 11.5 mph 70 % 0.00 in
03:06 57.9 °F 47.4 °F 30.30 in ENE 5.0 mph 12.0 mph 68 % 0.00 in
03:11 57.8 °F 47.3 °F 30.30 in ENE 3.0 mph 8.0 mph 68 % 0.00 in
03:16 57.8 °F 46.5 °F 30.30 in NE 6.9 mph 8.1 mph 66 % 0.00 in
03:21 57.8 °F 46.9 °F 30.30 in ENE 5.0 mph 14.0 mph 67 % 0.00 in
03:26 57.8 °F 46.9 °F 30.30 in ENE 5.0 mph 9.0 mph 67 % 0.00 in
03:31 57.8 °F 47.3 °F 30.30 in ENE 5.0 mph 10.0 mph 68 % 0.00 in
03:36 57.8 °F 48.1 °F 30.30 in ENE 3.0 mph 7.0 mph 70 % 0.00 in
03:41 57.7 °F 47.6 °F 30.30 in ENE 3.0 mph 13.0 mph 69 % 0.00 in
03:46 57.7 °F 48.0 °F 30.30 in ENE 5.0 mph 9.0 mph 70 % 0.00 in
03:51 57.6 °F 47.9 °F 30.30 in ENE 2.0 mph 8.0 mph 70 % 0.00 in
03:56 57.6 °F 48.2 °F 30.30 in ENE 3.0 mph 6.0 mph 71 % 0.00 in
04:01 57.4 °F 48.1 °F 30.30 in ENE 3.7 mph 8.0 mph 71 % 0.00 in
04:06 57.4 °F 48.4 °F 30.30 in ENE 3.0 mph 10.0 mph 72 % 0.00 in
04:11 57.3 °F 48.7 °F 30.30 in ENE 5.0 mph 12.0 mph 73 % 0.00 in
04:16 57.3 °F 49.1 °F 30.30 in ENE 6.0 mph 13.0 mph 74 % 0.00 in
04:21 57.2 °F 49.0 °F 30.30 in ENE 6.0 mph 12.0 mph 74 % 0.00 in
04:26 57.2 °F 49.3 °F 30.30 in NE 6.0 mph 9.0 mph 75 % 0.00 in
04:31 57.1 °F 49.6 °F 30.30 in ENE 6.0 mph 10.0 mph 76 % 0.00 in
04:36 57.1 °F 50.0 °F 30.30 in ENE 3.0 mph 9.0 mph 77 % 0.00 in
04:41 57.0 °F 50.2 °F 30.30 in ENE 5.0 mph 12.0 mph 78 % 0.00 in
04:46 57.0 °F 50.2 °F 30.30 in ENE 2.0 mph 12.0 mph 78 % 0.00 in
04:51 56.9 °F 50.8 °F 30.30 in ENE 6.0 mph 9.0 mph 80 % 0.00 in
04:56 56.9 °F 51.1 °F 30.31 in ENE 5.0 mph 12.0 mph 81 % 0.00 in
05:01 56.9 °F 51.1 °F 30.30 in ENE 4.7 mph 10.4 mph 81 % 0.00 in
05:06 56.8 °F 51.0 °F 30.31 in ENE 7.0 mph 13.0 mph 81 % 0.00 in
05:11 56.7 °F 50.6 °F 30.31 in ENE 6.0 mph 10.0 mph 80 % 0.00 in
05:16 56.6 °F 50.8 °F 30.31 in ENE 3.0 mph 9.0 mph 81 % 0.00 in
05:21 56.6 °F 50.8 °F 30.31 in ENE 5.0 mph 10.0 mph 81 % 0.00 in
05:26 56.4 °F 51.0 °F 30.31 in ENE 5.0 mph 10.0 mph 82 % 0.00 in
05:31 56.4 °F 50.6 °F 30.31 in ENE 6.0 mph 10.0 mph 81 % 0.00 in
05:36 56.3 °F 50.9 °F 30.31 in ENE 3.0 mph 9.0 mph 82 % 0.00 in
05:41 56.2 °F 50.8 °F 30.31 in ENE 5.0 mph 12.0 mph 82 % 0.00 in
05:46 56.2 °F 50.8 °F 30.31 in ENE 5.0 mph 10.0 mph 82 % 0.00 in
05:51 56.2 °F 51.1 °F 30.31 in ENE 6.0 mph 9.0 mph 83 % 0.00 in
05:56 56.2 °F 51.4 °F 30.31 in ENE 2.0 mph 10.0 mph 84 % 0.00 in
06:01 56.2 °F 51.7 °F 30.31 in NE 5.1 mph 9.0 mph 85 % 0.00 in
06:06 56.1 °F 51.7 °F 30.31 in ENE 5.0 mph 14.0 mph 85 % 0.00 in
06:11 56.0 °F 51.6 °F 30.31 in NNE 4.4 mph 8.1 mph 85 % 0.00 in
06:26 55.7 °F 51.6 °F 30.31 in ENE 5.0 mph 6.9 mph 86 % 0.00 in
06:31 55.6 °F 51.2 °F 30.31 in NNE 3.6 mph 8.0 mph 85 % 0.00 in
06:36 55.5 °F 51.1 °F 30.31 in ENE 6.3 mph 10.0 mph 85 % 0.00 in
06:41 55.4 °F 51.3 °F 30.31 in ENE 4.9 mph 11.5 mph 86 % 0.00 in
06:46 55.4 °F 51.3 °F 30.31 in ENE 4.8 mph 10.4 mph 86 % 0.00 in
06:51 55.4 °F 51.3 °F 30.31 in ENE 7.1 mph 9.0 mph 86 % 0.00 in
06:57 55.4 °F 51.3 °F 30.31 in ENE 4.9 mph 9.2 mph 86 % 0.00 in
07:07 55.3 °F 51.2 °F 30.31 in ENE 6.6 mph 8.0 mph 86 % 0.00 in
07:12 55.4 °F 51.3 °F 30.31 in NE 4.7 mph 8.1 mph 86 % 0.00 in
07:17 55.4 °F 51.3 °F 30.31 in NE 5.3 mph 6.9 mph 86 % 0.00 in
07:22 55.4 °F 51.3 °F 30.31 in ENE 7.1 mph 11.5 mph 86 % 0.00 in
07:27 55.5 °F 51.4 °F 30.31 in ENE 8.1 mph 11.5 mph 86 % 0.00 in
07:32 55.5 °F 51.4 °F 30.31 in ENE 6.8 mph 11.5 mph 86 % 0.00 in
07:37 55.5 °F 51.4 °F 30.31 in East 7.0 mph 11.5 mph 86 % 0.00 in
07:42 55.6 °F 51.8 °F 30.32 in ENE 6.4 mph 11.5 mph 87 % 0.00 in
07:47 55.7 °F 51.6 °F 30.32 in ENE 6.8 mph 10.4 mph 86 % 0.00 in
07:52 55.7 °F 51.6 °F 30.32 in ENE 5.8 mph 9.2 mph 86 % 0.00 in
07:58 55.7 °F 51.6 °F 30.32 in ENE 4.3 mph 8.1 mph 86 % 0.00 in
08:03 55.8 °F 51.7 °F 30.32 in ENE 5.0 mph 10.4 mph 86 % 0.00 in
08:08 55.8 °F 51.7 °F 30.33 in East 6.1 mph 11.5 mph 86 % 0.00 in
08:13 55.8 °F 51.7 °F 30.33 in ENE 7.0 mph 15.0 mph 86 % 0.00 in
08:18 55.9 °F 51.8 °F 30.33 in ENE 6.0 mph 9.2 mph 86 % 0.00 in
08:23 55.9 °F 51.8 °F 30.33 in ENE 4.1 mph 7.0 mph 86 % 0.00 in
08:28 56.0 °F 51.9 °F 30.33 in ENE 5.0 mph 10.4 mph 86 % 0.00 in
08:33 56.0 °F 51.6 °F 30.33 in NE 6.7 mph 11.5 mph 85 % 0.00 in
08:38 56.1 °F 52.0 °F 30.33 in NE 4.6 mph 7.0 mph 86 % 0.00 in
08:43 56.3 °F 52.2 °F 30.33 in NE 3.7 mph 8.1 mph 86 % 0.00 in
08:48 56.4 °F 52.3 °F 30.34 in ENE 3.1 mph 7.0 mph 86 % 0.00 in
08:54 56.5 °F 52.4 °F 30.34 in East 5.9 mph 10.4 mph 86 % 0.00 in
08:59 56.6 °F 52.5 °F 30.34 in NE 3.3 mph 5.0 mph 86 % 0.00 in
09:04 56.8 °F 52.7 °F 30.34 in ENE 3.5 mph 9.2 mph 86 % 0.00 in
09:09 56.9 °F 52.4 °F 30.34 in NE 3.7 mph 6.9 mph 85 % 0.00 in
09:14 57.0 °F 52.5 °F 30.34 in NNE 3.7 mph 10.4 mph 85 % 0.00 in
09:19 57.1 °F 52.6 °F 30.34 in NE 5.3 mph 6.9 mph 85 % 0.00 in
09:24 57.2 °F 52.4 °F 30.34 in ENE 4.7 mph 9.2 mph 84 % 0.00 in
09:29 57.3 °F 52.5 °F 30.34 in ENE 4.8 mph 6.9 mph 84 % 0.00 in
09:39 57.5 °F 52.7 °F 30.34 in East 4.8 mph 8.1 mph 84 % 0.00 in
09:45 57.6 °F 52.8 °F 30.34 in ENE 5.9 mph 6.9 mph 84 % 0.00 in
09:50 57.7 °F 52.9 °F 30.34 in ENE 4.4 mph 8.1 mph 84 % 0.00 in
10:00 57.9 °F 53.1 °F 30.34 in East 5.0 mph 9.2 mph 84 % 0.00 in
10:05 58.1 °F 53.0 °F 30.34 in ENE 7.2 mph 8.1 mph 83 % 0.00 in
10:10 58.2 °F 53.1 °F 30.34 in East 6.7 mph 10.4 mph 83 % 0.00 in
10:15 58.5 °F 53.4 °F 30.34 in ENE 4.7 mph 8.1 mph 83 % 0.00 in
10:20 58.8 °F 53.6 °F 30.34 in ENE 4.1 mph 8.1 mph 83 % 0.00 in
10:25 59.1 °F 53.6 °F 30.34 in NE 3.5 mph 5.8 mph 82 % 0.00 in
10:30 59.4 °F 53.9 °F 30.34 in ENE 5.2 mph 7.0 mph 82 % 0.00 in
10:36 59.6 °F 53.7 °F 30.34 in ENE 5.0 mph 9.0 mph 81 % 0.00 in
10:41 59.8 °F 53.9 °F 30.34 in ENE 3.0 mph 7.0 mph 81 % 0.00 in
10:46 59.9 °F 54.1 °F 30.34 in ENE 7.0 mph 15.0 mph 81 % 0.00 in
10:51 60.1 °F 54.3 °F 30.34 in ENE 6.0 mph 8.0 mph 81 % 0.00 in
10:55 60.5 °F 54.3 °F 30.34 in ENE 5.5 mph 9.2 mph 80 % 0.00 in
11:01 60.7 °F 54.5 °F 30.34 in East 6.2 mph 11.5 mph 80 % 0.00 in
11:06 61.1 °F 54.9 °F 30.33 in NE 4.7 mph 6.9 mph 80 % 0.00 in
11:11 61.6 °F 54.7 °F 30.33 in ENE 5.4 mph 9.2 mph 78 % 0.00 in
11:16 62.3 °F 55.4 °F 30.33 in ENE 5.9 mph 10.0 mph 78 % 0.00 in
11:21 62.8 °F 55.5 °F 30.33 in ENE 4.4 mph 6.9 mph 77 % 0.00 in
11:26 63.1 °F 54.7 °F 30.33 in East 4.5 mph 10.4 mph 74 % 0.00 in
11:31 63.1 °F 54.7 °F 30.33 in ENE 6.3 mph 11.5 mph 74 % 0.00 in
11:42 62.7 °F 54.7 °F 30.32 in ENE 2.4 mph 11.5 mph 75 % 0.00 in
11:47 62.8 °F 54.8 °F 30.32 in ENE 3.3 mph 10.4 mph 75 % 0.00 in
11:52 63.4 °F 55.3 °F 30.32 in East 5.4 mph 9.2 mph 75 % 0.00 in
11:57 63.6 °F 54.8 °F 30.32 in ENE 3.6 mph 8.1 mph 73 % 0.00 in
12:02 64.1 °F 55.6 °F 30.32 in ENE 6.3 mph 10.4 mph 74 % 0.00 in
12:07 64.8 °F 55.6 °F 30.32 in ENE 4.5 mph 9.2 mph 72 % 0.00 in
12:12 65.2 °F 55.6 °F 30.32 in ENE 7.2 mph 9.2 mph 71 % 0.00 in
12:17 65.4 °F 56.1 °F 30.32 in NE 2.6 mph 6.9 mph 72 % 0.00 in
12:22 66.1 °F 55.6 °F 30.32 in ENE 5.1 mph 8.1 mph 69 % 0.00 in
12:27 66.2 °F 55.7 °F 30.32 in NE 1.7 mph 3.5 mph 69 % 0.00 in
12:32 66.3 °F 55.4 °F 30.31 in ENE 4.9 mph 9.2 mph 68 % 0.00 in
12:37 66.2 °F 56.1 °F 30.31 in ENE 2.6 mph 3.5 mph 70 % 0.00 in
12:42 66.3 °F 55.4 °F 30.31 in East 3.1 mph 6.0 mph 68 % 0.00 in
12:48 66.1 °F 55.6 °F 30.31 in ENE 3.0 mph 6.9 mph 69 % 0.00 in
12:53 66.6 °F 55.7 °F 30.31 in ENE 4.9 mph 8.1 mph 68 % 0.00 in
12:58 66.3 °F 54.6 °F 30.30 in ENE 5.2 mph 11.5 mph 66 % 0.00 in
13:03 66.1 °F 54.8 °F 30.30 in NE 3.9 mph 10.4 mph 67 % 0.00 in
13:08 66.3 °F 55.4 °F 30.30 in ENE 3.2 mph 8.1 mph 68 % 0.00 in
13:13 66.5 °F 55.2 °F 30.30 in ENE 2.4 mph 3.5 mph 67 % 0.00 in
13:18 66.8 °F 55.5 °F 30.30 in ENE 2.5 mph 3.5 mph 67 % 0.00 in
13:23 67.1 °F 55.8 °F 30.30 in NE 3.6 mph 6.0 mph 67 % 0.00 in
13:28 67.3 °F 56.4 °F 30.30 in ENE 2.1 mph 3.5 mph 68 % 0.00 in
13:33 67.6 °F 56.2 °F 30.29 in NE 2.0 mph 4.6 mph 67 % 0.00 in
13:38 68.0 °F 56.6 °F 30.29 in East 1.6 mph 3.5 mph 67 % 0.00 in
13:44 68.3 °F 56.1 °F 30.28 in East 2.6 mph 5.0 mph 65 % 0.00 in
13:49 68.4 °F 56.6 °F 30.28 in East 2.5 mph 4.6 mph 66 % 0.00 in
13:54 68.4 °F 56.6 °F 30.28 in ENE 1.9 mph 3.5 mph 66 % 0.00 in
13:59 68.6 °F 57.2 °F 30.27 in ENE 2.0 mph 3.5 mph 67 % 0.00 in
14:04 68.7 °F 56.5 °F 30.27 in East 2.1 mph 4.6 mph 65 % 0.00 in
14:09 68.3 °F 55.2 °F 30.27 in East 1.8 mph 2.3 mph 63 % 0.00 in
14:19 68.3 °F 55.6 °F 30.27 in ENE 1.5 mph 3.5 mph 64 % 0.00 in
14:24 68.2 °F 56.4 °F 30.27 in ESE 1.4 mph 2.3 mph 66 % 0.00 in
14:29 68.0 °F 56.2 °F 30.27 in East 2.1 mph 3.5 mph 66 % 0.00 in
14:34 68.0 °F 57.0 °F 30.27 in East 2.0 mph 3.5 mph 68 % 0.00 in
14:39 67.9 °F 55.3 °F 30.27 in East 1.5 mph 3.5 mph 64 % 0.00 in
14:45 67.9 °F 56.1 °F 30.27 in East 2.0 mph 3.0 mph 66 % 0.00 in
14:55 67.9 °F 55.7 °F 30.26 in East 2.7 mph 4.6 mph 65 % 0.00 in
15:00 67.9 °F 55.7 °F 30.26 in East 1.5 mph 3.5 mph 65 % 0.00 in
15:05 67.8 °F 55.6 °F 30.26 in East 1.9 mph 4.6 mph 65 % 0.00 in
15:10 67.7 °F 55.5 °F 30.26 in ENE 1.5 mph 3.5 mph 65 % 0.00 in
15:15 67.7 °F 55.9 °F 30.26 in ENE 1.6 mph 2.3 mph 66 % 0.00 in
15:25 67.2 °F 54.6 °F 30.26 in East 1.3 mph 3.5 mph 64 % 0.00 in
15:30 67.0 °F 54.4 °F 30.25 in SE 1.4 mph 3.5 mph 64 % 0.00 in
15:35 66.7 °F 54.1 °F 30.25 in ESE 1.0 mph 2.3 mph 64 % 0.00 in
15:40 66.5 °F 54.8 °F 30.25 in ESE 1.1 mph 2.3 mph 66 % 0.00 in
15:45 66.3 °F 54.6 °F 30.25 in ESE 0.8 mph 3.5 mph 66 % 0.00 in
15:50 66.1 °F 54.4 °F 30.25 in NE 0.7 mph 3.5 mph 66 % 0.00 in
15:55 66.0 °F 54.3 °F 30.25 in ENE 1.0 mph 3.0 mph 66 % 0.00 in
16:01 65.8 °F 54.1 °F 30.25 in SSE 0.4 mph 2.3 mph 66 % 0.00 in
16:11 65.6 °F 53.5 °F 30.25 in East 1.3 mph 3.5 mph 65 % 0.00 in
16:16 65.5 °F 53.8 °F 30.25 in ESE 1.1 mph 2.3 mph 66 % 0.00 in
16:21 65.4 °F 53.3 °F 30.25 in ESE 0.6 mph 2.3 mph 65 % 0.00 in
16:27 65.4 °F 53.3 °F 30.25 in East 1.1 mph 3.5 mph 65 % 0.00 in
16:32 65.2 °F 52.7 °F 30.25 in East 0.7 mph 2.3 mph 64 % 0.00 in
16:37 65.1 °F 53.0 °F 30.24 in ESE 1.0 mph 2.3 mph 65 % 0.00 in
16:42 65.1 °F 53.5 °F 30.24 in Calm   1.2 mph 66 % 0.00 in
16:48 65.0 °F 53.4 °F 30.24 in SSE 0.3 mph 2.3 mph 66 % 0.00 in
16:53 64.9 °F 52.4 °F 30.24 in SE 2.0 mph 2.3 mph 64 % 0.00 in
16:55 64.9 °F 52.4 °F 30.24 in SE 0.8 mph 1.2 mph 64 % 0.00 in
17:00 64.8 °F 52.8 °F 30.24 in Calm   1.2 mph 65 % 0.00 in
17:05 64.7 °F 53.1 °F 30.24 in SE 0.2 mph 1.2 mph 66 % 0.00 in
17:15 64.4 °F 53.6 °F 30.24 in Calm   1.0 mph 68 % 0.00 in
17:21 64.2 °F 53.4 °F 30.24 in Calm   1.2 mph 68 % 0.00 in
17:26 64.1 °F 53.3 °F 30.24 in SE 0.1 mph 1.2 mph 68 % 0.00 in
17:42 63.8 °F 53.8 °F 30.25 in Calm     70 % 0.00 in
17:47 63.7 °F 53.7 °F 30.25 in Calm     70 % 0.00 in
17:48 63.7 °F 53.7 °F 30.25 in Calm     70 % 0.00 in
17:51 63.6 °F 53.6 °F 30.25 in Calm     70 % 0.00 in
17:57 63.5 °F 53.5 °F 30.25 in Calm     70 % 0.00 in
18:02 63.4 °F 53.8 °F 30.25 in Calm     71 % 0.00 in
18:07 63.3 °F 53.7 °F 30.25 in Calm     71 % 0.00 in
18:12 63.1 °F 53.9 °F 30.25 in Calm     72 % 0.00 in
18:17 63.0 °F 54.2 °F 30.25 in Calm     73 % 0.00 in
18:22 62.8 °F 54.0 °F 30.25 in SE 0.2 mph 1.2 mph 73 % 0.00 in
18:27 62.6 °F 54.2 °F 30.25 in Calm     74 % 0.00 in
18:33 62.4 °F 54.0 °F 30.26 in Calm     74 % 0.00 in
18:38 62.2 °F 54.2 °F 30.26 in Calm     75 % 0.00 in
18:43 61.9 °F 54.2 °F 30.26 in Calm     76 % 0.00 in
18:48 61.6 °F 54.0 °F 30.26 in Calm     76 % 0.00 in
18:53 61.3 °F 53.7 °F 30.26 in Calm     76 % 0.00 in
18:58 61.1 °F 53.8 °F 30.26 in Calm     77 % 0.00 in
19:03 60.7 °F 53.4 °F 30.26 in Calm     77 % 0.00 in
19:08 60.5 °F 53.6 °F 30.26 in Calm   1.2 mph 78 % 0.00 in
19:13 60.2 °F 53.7 °F 30.26 in Calm     79 % 0.00 in
19:18 59.8 °F 53.3 °F 30.27 in Calm   1.2 mph 79 % 0.00 in
19:24 59.6 °F 53.4 °F 30.27 in Calm   1.2 mph 80 % 0.00 in
19:29 59.2 °F 53.4 °F 30.27 in Calm     81 % 0.00 in
19:34 59.0 °F 53.2 °F 30.27 in Calm     81 % 0.00 in
19:39 58.7 °F 52.9 °F 30.27 in Calm     81 % 0.00 in
19:49 58.3 °F 52.8 °F 30.27 in Calm     82 % 0.00 in
19:54 58.2 °F 53.1 °F 30.27 in Calm     83 % 0.00 in
19:59 58.0 °F 53.2 °F 30.27 in SE 0.2 mph 1.2 mph 84 % 0.00 in
20:04 57.9 °F 53.4 °F 30.27 in Calm     85 % 0.00 in
20:10 57.8 °F 53.3 °F 30.27 in Calm     85 % 0.00 in
20:15 57.6 °F 53.1 °F 30.27 in Calm     85 % 0.00 in
20:20 57.5 °F 53.0 °F 30.27 in Calm     85 % 0.00 in
20:25 57.3 °F 53.1 °F 30.27 in Calm     86 % 0.00 in
20:30 57.2 °F 53.0 °F 30.27 in Calm     86 % 0.00 in
20:35 57.1 °F 53.0 °F 30.27 in Calm     86 % 0.00 in
20:40 56.9 °F 52.8 °F 30.27 in Calm     86 % 0.00 in
20:45 56.8 °F 52.7 °F 30.27 in Calm     86 % 0.00 in
20:50 56.7 °F 52.6 °F 30.27 in Calm     86 % 0.00 in
20:55 56.5 °F 52.7 °F 30.27 in Calm     87 % 0.00 in
21:01 56.3 °F 52.5 °F 30.27 in SE 0.4 mph 1.0 mph 87 % 0.00 in
21:06 56.2 °F 52.4 °F 30.27 in Calm   2.0 mph 87 % 0.00 in
21:11 56.1 °F 52.3 °F 30.27 in Calm   2.0 mph 87 % 0.00 in
21:16 56.1 °F 52.6 °F 30.27 in SE 0.1 mph 1.2 mph 88 % 0.00 in
21:21 56.0 °F 52.8 °F 30.27 in Calm   2.0 mph 89 % 0.00 in
21:26 55.9 °F 52.7 °F 30.27 in Calm   1.0 mph 89 % 0.00 in
21:31 55.8 °F 52.6 °F 30.27 in Calm     89 % 0.00 in
21:36 55.8 °F 52.9 °F 30.26 in Calm   1.0 mph 90 % 0.00 in
21:41 55.7 °F 52.8 °F 30.26 in Calm     90 % 0.00 in
21:46 55.6 °F 52.7 °F 30.26 in Calm   1.0 mph 90 % 0.00 in
21:51 55.5 °F 52.6 °F 30.26 in Calm   1.0 mph 90 % 0.00 in
21:56 55.5 °F 52.6 °F 30.26 in Calm   1.0 mph 90 % 0.00 in
22:01 55.4 °F 52.5 °F 30.26 in Calm     90 % 0.00 in
22:06 55.3 °F 52.4 °F 30.26 in Calm     90 % 0.00 in
22:11 55.2 °F 52.3 °F 30.26 in Calm     90 % 0.00 in
22:16 55.1 °F 52.2 °F 30.26 in Calm     90 % 0.00 in
22:21 55.0 °F 52.1 °F 30.26 in Calm     90 % 0.00 in
22:26 54.9 °F 52.0 °F 30.27 in Calm     90 % 0.00 in
22:31 54.8 °F 51.9 °F 30.27 in Calm     90 % 0.00 in
22:36 54.7 °F 51.9 °F 30.27 in Calm     90 % 0.00 in
22:41 54.6 °F 51.8 °F 30.27 in Calm     90 % 0.00 in
22:46 54.6 °F 51.7 °F 30.27 in Calm     90 % 0.00 in
22:51 54.5 °F 51.6 °F 30.27 in Calm     90 % 0.00 in
22:56 54.4 °F 51.5 °F 30.27 in Calm     90 % 0.00 in
23:01 54.3 °F 51.4 °F 30.27 in Calm     90 % 0.00 in
23:06 54.2 °F 51.3 °F 30.27 in Calm   2.0 mph 90 % 0.00 in
23:11 54.2 °F 51.6 °F 30.27 in Calm   2.0 mph 91 % 0.00 in
23:16 54.2 °F 51.6 °F 30.27 in SE 1.2 mph 2.3 mph 91 % 0.00 in
23:21 54.1 °F 51.8 °F 30.27 in Calm   1.0 mph 92 % 0.00 in
23:26 54.1 °F 51.8 °F 30.27 in Calm   1.0 mph 92 % 0.00 in
23:31 54.0 °F 51.7 °F 30.27 in Calm   1.0 mph 92 % 0.00 in
23:36 54.0 °F 51.7 °F 30.27 in Calm     92 % 0.00 in
23:41 53.9 °F 51.6 °F 30.27 in Calm     92 % 0.00 in
23:46 53.9 °F 51.6 °F 30.27 in Calm     92 % 0.00 in
23:51 53.9 °F 51.6 °F 30.27 in Calm   2.0 mph 92 % 0.00 in
23:56 53.9 °F 51.6 °F 30.27 in Calm   1.0 mph 92 % 0.00 in
Crab Meadow Weather
Compliments of Weather Underground - 2.75 mb

Script developed by  Jim McMurry - jmcmurry@mwt.net Adapted for the template by  Wim van der Kuil - Leuven-Template.eu

Weather Terms: Severe Thunderstorm Watch - Conditions are favorable for the development of severe thunderstorms in and close to the watch area. These watches are issued for large areas by the Storm Prediction Center in Norman, Oklahoma, and are usually valid for four to six hours.